Terminal Aerodrome Forecast
Issued by NWS

Home | Current Version | Previous Version | Text Only | Print | Product List | Glossary On
Versions: 1 2 3 4 5 6 7 8 9 10 11 12 13 14 15 16 17 18
000
FTUS45 KGJT 270159 AAC
TAFEGE
TAF AMD
KEGE 270159Z 2702/2724 11012KT P6SM VCSH SCT080 BKN120
      TEMPO 2702/2703 -SHRA BKN080 OVC120
     FM270300 08010KT P6SM BKN120
     FM270700 VRB03KT P6SM FEW250
     FM272000 25010G18KT P6SM FEW250
      AMD LTD TO CLD VIS AND WIND 2702/2713=

USA.gov is the U.S. government's official web portal to all federal, state and local government web resources and services.